createdAt,value
2022-11-30T00:02:47.513Z,7.08
2022-11-30T00:07:43.851Z,7.11
2022-11-30T00:12:37.444Z,7.13
2022-11-30T00:17:34.715Z,7.06
2022-11-30T00:22:29.317Z,7.18
2022-11-30T00:27:20.880Z,7.26
2022-11-30T00:32:15.972Z,7.27
2022-11-30T00:37:15.694Z,7.30
2022-11-30T00:42:08.906Z,7.28
2022-11-30T00:47:01.392Z,7.30
2022-11-30T00:51:51.763Z,7.32
2022-11-30T00:56:46.407Z,7.31
2022-11-30T01:01:52.172Z,7.26
2022-11-30T01:06:49.408Z,7.31
2022-11-30T01:11:43.106Z,7.26
2022-11-30T01:16:40.331Z,7.38
2022-11-30T01:21:34.624Z,7.33
2022-11-30T01:26:25.948Z,7.26
2022-11-30T01:31:18.250Z,7.25
2022-11-30T01:36:19.788Z,7.31
2022-11-30T01:46:37.639Z,7.41
2022-11-30T01:51:36.725Z,7.34
2022-11-30T01:56:35.529Z,7.36
2022-11-30T02:01:34.834Z,7.35
2022-11-30T02:06:55.138Z,7.24
2022-11-30T02:11:52.693Z,7.31
2022-11-30T02:17:00.478Z,7.23
2022-11-30T02:22:10.213Z,7.31
2022-11-30T02:27:33.049Z,7.30
2022-11-30T02:32:38.281Z,7.23
2022-11-30T02:37:36.124Z,7.25
2022-11-30T02:42:37.814Z,7.23
2022-11-30T02:47:43.995Z,7.13
2022-11-30T02:52:35.402Z,7.09
2022-11-30T02:57:25.250Z,6.97
2022-11-30T03:02:23.213Z,6.86
2022-11-30T03:07:29.658Z,6.89
2022-11-30T03:12:24.231Z,6.85
2022-11-30T03:17:19.615Z,6.81
2022-11-30T03:22:24.193Z,6.80
2022-11-30T03:27:17.227Z,6.72
2022-11-30T03:32:13.087Z,6.77
2022-11-30T03:37:17.537Z,6.70
2022-11-30T03:42:15.086Z,6.76
2022-11-30T03:47:12.582Z,6.78
2022-11-30T03:52:08.615Z,6.76
2022-11-30T03:57:04.680Z,6.77
2022-11-30T04:01:57.794Z,6.78
2022-11-30T04:06:58.405Z,6.82
2022-11-30T04:11:57.385Z,6.74
2022-11-30T04:16:54.887Z,6.75
2022-11-30T04:21:54.063Z,6.69
2022-11-30T04:26:55.852Z,6.65
2022-11-30T04:31:52.592Z,6.61
2022-11-30T04:36:42.495Z,6.56
2022-11-30T04:41:32.522Z,6.53
2022-11-30T04:46:28.730Z,6.47
2022-11-30T04:51:26.533Z,6.48
2022-11-30T04:56:24.067Z,6.47
2022-11-30T05:01:15.038Z,6.45
2022-11-30T05:06:19.385Z,6.48
2022-11-30T05:11:14.409Z,6.41
2022-11-30T05:16:07.600Z,6.45
2022-11-30T05:20:57.874Z,6.54
2022-11-30T05:25:51.486Z,6.54
2022-11-30T05:30:42.419Z,6.52
2022-11-30T05:35:37.311Z,6.54
2022-11-30T05:40:30.501Z,6.55
2022-11-30T05:45:28.770Z,6.53
2022-11-30T05:50:30.314Z,6.59
2022-11-30T05:55:29.382Z,6.56
2022-11-30T06:00:28.548Z,6.56
2022-11-30T06:05:18.275Z,6.58
2022-11-30T06:10:16.035Z,6.59
2022-11-30T06:15:19.569Z,6.47
2022-11-30T06:20:19.783Z,6.54
2022-11-30T06:25:15.663Z,6.46
2022-11-30T06:30:11.979Z,6.45
2022-11-30T06:35:06.584Z,6.48
2022-11-30T06:40:06.489Z,6.44
2022-11-30T06:45:00.940Z,6.48
2022-11-30T06:49:57.414Z,6.47
2022-11-30T06:54:49.968Z,6.45
2022-11-30T06:59:49.579Z,6.45
2022-11-30T07:04:48.385Z,6.46
2022-11-30T07:09:42.569Z,6.38
2022-11-30T07:14:37.618Z,6.39
2022-11-30T07:19:30.334Z,6.27
2022-11-30T07:24:35.798Z,6.40
2022-11-30T07:29:37.152Z,6.43
2022-11-30T07:34:36.353Z,6.38
2022-11-30T07:39:29.580Z,6.38
2022-11-30T07:44:22.834Z,6.44
2022-11-30T07:49:17.741Z,6.43
2022-11-30T07:54:10.402Z,6.37
2022-11-30T07:59:07.171Z,6.41
2022-11-30T08:04:01.217Z,6.55
2022-11-30T08:09:07.611Z,6.55
2022-11-30T08:14:17.916Z,6.54
2022-11-30T08:19:11.412Z,6.58
2022-11-30T08:24:01.440Z,6.54
2022-11-30T08:28:52.596Z,6.48
2022-11-30T08:33:48.210Z,6.65
2022-11-30T08:38:50.828Z,6.55
2022-11-30T08:43:52.592Z,6.71
2022-11-30T08:49:12.526Z,6.70
2022-11-30T08:54:03.159Z,6.72
2022-11-30T08:58:57.774Z,6.85
2022-11-30T09:04:07.744Z,6.91
2022-11-30T09:09:02.612Z,6.93
2022-11-30T09:14:00.448Z,7.09
2022-11-30T09:19:00.235Z,7.20
2022-11-30T09:23:51.244Z,7.30
2022-11-30T09:28:41.895Z,7.42
2022-11-30T09:33:44.273Z,7.40
2022-11-30T09:38:48.728Z,7.64
2022-11-30T09:44:00.096Z,7.95
2022-11-30T09:48:57.867Z,8.00
2022-11-30T09:54:08.821Z,8.02
2022-11-30T09:59:09.323Z,8.02
2022-11-30T10:04:06.262Z,7.96
2022-11-30T10:09:15.284Z,7.86
2022-11-30T10:14:26.418Z,7.82
2022-11-30T10:19:37.149Z,7.86
2022-11-30T10:24:53.555Z,7.94
2022-11-30T10:30:00.417Z,8.01
2022-11-30T10:34:57.282Z,7.86
2022-11-30T10:40:08.260Z,8.02
2022-11-30T10:45:03.747Z,8.14
2022-11-30T10:49:56.639Z,8.13
2022-11-30T10:54:46.591Z,8.25
2022-11-30T11:00:05.412Z,8.27
2022-11-30T11:05:24.824Z,8.36
2022-11-30T11:10:16.271Z,8.49
2022-11-30T11:15:25.291Z,8.64
2022-11-30T11:20:37.620Z,8.69
2022-11-30T11:25:36.682Z,8.70
2022-11-30T11:30:36.347Z,8.65
2022-11-30T11:35:50.631Z,8.76
2022-11-30T11:40:43.728Z,8.93
2022-11-30T11:45:44.542Z,8.99
2022-11-30T11:56:19.455Z,9.01
2022-11-30T12:01:39.829Z,9.02
2022-11-30T12:06:44.610Z,9.05
2022-11-30T12:12:13.344Z,9.09
2022-11-30T12:17:31.674Z,9.06
2022-11-30T12:23:00.681Z,9.08
2022-11-30T12:27:59.200Z,9.19
2022-11-30T12:33:17.349Z,9.31
2022-11-30T12:38:24.339Z,9.35
2022-11-30T12:43:55.485Z,9.39
2022-11-30T12:49:20.987Z,9.57
2022-11-30T12:54:22.290Z,9.47
2022-11-30T12:59:32.043Z,9.39
2022-11-30T13:04:51.941Z,9.32
2022-11-30T13:09:53.114Z,9.28
2022-11-30T13:14:49.679Z,9.26
2022-11-30T13:20:06.715Z,9.17
2022-11-30T13:25:13.605Z,9.22
2022-11-30T13:30:55.162Z,9.21
2022-11-30T13:36:02.104Z,9.17
2022-11-30T13:41:03.599Z,9.20
2022-11-30T13:46:10.159Z,9.11
2022-11-30T13:51:09.173Z,9.13
2022-11-30T13:56:14.134Z,9.14
2022-11-30T14:01:27.644Z,9.04
2022-11-30T14:06:57.803Z,8.96
2022-11-30T14:11:52.729Z,8.96
2022-11-30T14:16:46.068Z,8.90
2022-11-30T14:21:38.286Z,8.90
2022-11-30T14:26:52.828Z,8.64
2022-11-30T14:31:58.805Z,8.91
2022-11-30T14:36:58.619Z,8.88
2022-11-30T14:41:51.816Z,8.83
2022-11-30T14:46:44.351Z,8.52
2022-11-30T14:51:35.009Z,8.68
2022-11-30T14:56:36.354Z,8.74
2022-11-30T15:01:36.039Z,8.65
2022-11-30T15:06:34.460Z,8.72
2022-11-30T15:11:31.233Z,8.67
2022-11-30T15:16:29.043Z,8.62
2022-11-30T15:21:25.681Z,8.57
2022-11-30T15:26:24.843Z,8.41
2022-11-30T15:31:20.515Z,8.41
2022-11-30T15:36:31.966Z,8.40
2022-11-30T15:41:30.650Z,8.35
2022-11-30T15:46:41.383Z,8.19
2022-11-30T15:51:44.564Z,8.23
2022-11-30T15:56:47.418Z,8.16
2022-11-30T16:02:02.454Z,8.09
2022-11-30T16:06:54.334Z,7.92
2022-11-30T16:11:51.300Z,7.95
2022-11-30T16:16:46.253Z,7.90
2022-11-30T16:21:38.144Z,7.83
2022-11-30T16:26:50.983Z,7.67
2022-11-30T16:31:51.442Z,7.65
2022-11-30T16:36:42.327Z,7.59
2022-11-30T16:41:38.175Z,7.49
2022-11-30T16:46:37.979Z,7.36
2022-11-30T16:51:50.990Z,7.25
2022-11-30T16:56:47.239Z,7.13
2022-11-30T17:01:41.346Z,6.90
2022-11-30T17:06:36.992Z,6.92
2022-11-30T17:11:34.026Z,6.81
2022-11-30T17:16:25.674Z,6.70
2022-11-30T17:21:22.814Z,6.63
2022-11-30T17:26:29.205Z,6.51
2022-11-30T17:31:31.110Z,6.40
2022-11-30T17:36:23.453Z,6.32
2022-11-30T17:41:23.706Z,6.20
2022-11-30T17:46:24.575Z,6.16
2022-11-30T17:51:29.529Z,6.02
2022-11-30T17:56:38.907Z,6.00
2022-11-30T18:01:32.385Z,5.86
2022-11-30T18:06:26.997Z,5.85
2022-11-30T18:11:23.274Z,5.75
2022-11-30T18:16:29.393Z,5.79
2022-11-30T18:21:24.758Z,5.62
2022-11-30T18:26:21.146Z,5.65
2022-11-30T18:31:18.819Z,5.59
2022-11-30T18:36:10.358Z,5.48
2022-11-30T18:41:06.027Z,5.14
2022-11-30T18:46:04.392Z,5.46
2022-11-30T18:51:13.503Z,5.40
2022-11-30T18:56:15.520Z,5.34
2022-11-30T19:01:15.896Z,5.29
2022-11-30T19:06:17.077Z,5.24
2022-11-30T19:11:12.283Z,5.17
2022-11-30T19:16:14.640Z,5.14
2022-11-30T19:21:23.729Z,4.99
2022-11-30T19:26:17.390Z,5.03
2022-11-30T19:31:21.342Z,4.96
2022-11-30T19:36:18.730Z,4.92
2022-11-30T19:41:26.673Z,4.84
2022-11-30T19:46:22.975Z,4.80
2022-11-30T19:51:33.633Z,4.75
2022-11-30T19:56:32.499Z,4.71
2022-11-30T20:01:46.444Z,4.68
2022-11-30T20:06:54.469Z,4.67
2022-11-30T20:11:51.796Z,4.68
2022-11-30T20:16:42.237Z,4.81
2022-11-30T20:21:37.337Z,4.97
2022-11-30T20:26:45.959Z,5.06
2022-11-30T20:31:39.380Z,5.17
2022-11-30T20:36:39.721Z,5.24
2022-11-30T20:41:32.385Z,5.24
2022-11-30T20:46:43.261Z,5.17
2022-11-30T20:51:39.554Z,5.10
2022-11-30T20:56:43.737Z,5.02
2022-11-30T21:01:45.309Z,4.95
2022-11-30T21:07:04.138Z,4.86
2022-11-30T21:12:07.350Z,4.76
2022-11-30T21:17:26.976Z,4.67
2022-11-30T21:22:18.425Z,4.57
2022-11-30T21:27:10.208Z,4.57
2022-11-30T21:32:05.248Z,4.52
2022-11-30T21:37:00.656Z,4.50
2022-11-30T21:41:53.542Z,4.40
2022-11-30T21:46:45.899Z,4.37
2022-11-30T21:51:37.564Z,4.32
2022-11-30T21:56:37.080Z,4.32
2022-11-30T22:01:30.621Z,4.39
2022-11-30T22:06:25.363Z,4.37
2022-11-30T22:11:18.818Z,4.34
2022-11-30T22:16:13.442Z,4.30
2022-11-30T22:21:07.749Z,4.39
2022-11-30T22:25:58.362Z,4.42
2022-11-30T22:30:50.280Z,4.52
2022-11-30T22:35:43.807Z,4.57
2022-11-30T22:40:35.861Z,4.69
2022-11-30T22:45:27.085Z,4.74
2022-11-30T22:50:18.372Z,4.76
2022-11-30T22:55:13.745Z,4.86
2022-11-30T23:00:05.818Z,4.91
2022-11-30T23:04:58.217Z,4.93
2022-11-30T23:09:49.970Z,4.93
2022-11-30T23:14:45.677Z,4.81
2022-11-30T23:19:37.119Z,4.77
2022-11-30T23:24:27.789Z,4.76
2022-11-30T23:29:19.454Z,4.61
2022-11-30T23:34:15.243Z,4.79
2022-11-30T23:39:08.950Z,4.87
2022-11-30T23:44:00.821Z,4.88
2022-11-30T23:48:52.598Z,4.80
2022-11-30T23:53:49.075Z,4.86
2022-11-30T23:58:42.909Z,4.84
